Time;durP1;ratioP1;P1;durP2;ratioP2;P2;SDS_P1;SDS_P2;PMS_P1;PMS_P2;Temp;Humidity;BMP_temperature;BMP_pressure;BME280_temperature;BME280_humidity;BME280_pressure;Samples;Min_cycle;Max_cycle;Signal;HPM_P1;HPM_P2
2022/03/15 00:00:08;;;;;;;68.93;25.80;;;2.20;99.90;;;;;;5052117;28;20064;-71
2022/03/15 00:02:40;;;;;;;70.18;28.02;;;2.10;99.90;;;;;;5063363;28;20095;-71
2022/03/15 00:05:07;;;;;;;72.18;28.02;;;1.90;99.90;;;;;;5043190;28;20082;-71
2022/03/15 00:07:33;;;;;;;62.30;24.90;;;1.90;99.90;;;;;;5061354;28;20055;-71
2022/03/15 00:10:00;;;;;;;64.78;25.90;;;1.90;99.90;;;;;;5060654;28;20538;-71
2022/03/15 00:12:29;;;;;;;61.55;24.88;;;1.90;99.90;;;;;;5026629;28;20092;-72
2022/03/15 00:14:56;;;;;;;61.15;23.27;;;1.80;99.90;;;;;;5042946;28;20580;-73
2022/03/15 00:17:23;;;;;;;75.35;26.52;;;1.90;99.90;;;;;;5042866;28;20044;-70
2022/03/15 00:19:50;;;;;;;58.80;25.52;;;2.00;99.90;;;;;;5042176;28;20052;-70
2022/03/15 00:22:17;;;;;;;64.15;23.73;;;2.00;99.90;;;;;;5060229;28;20140;-71
2022/03/15 00:24:43;;;;;;;66.63;24.67;;;1.80;99.90;;;;;;5061276;28;20084;-70
2022/03/15 00:27:10;;;;;;;63.30;23.15;;;1.70;99.90;;;;;;5059537;28;20145;-72
2022/03/15 00:29:39;;;;;;;61.67;25.60;;;1.60;99.90;;;;;;5061900;28;20148;-70
2022/03/15 00:32:07;;;;;;;62.75;25.10;;;1.60;99.90;;;;;;5032458;28;20082;-70
2022/03/15 00:34:34;;;;;;;56.53;24.58;;;1.60;99.90;;;;;;5043265;28;20064;-70
2022/03/15 00:37:02;;;;;;;61.88;24.48;;;1.60;99.90;;;;;;5042598;28;20560;-70
2022/03/15 00:39:33;;;;;;;62.03;23.95;;;1.50;99.90;;;;;;5022198;28;20044;-70
2022/03/15 00:42:00;;;;;;;54.40;22.35;;;1.40;99.90;;;;;;5038727;28;20136;-71
2022/03/15 00:44:28;;;;;;;64.15;24.17;;;1.50;99.90;;;;;;5023168;28;20052;-70
2022/03/15 00:46:56;;;;;;;74.78;25.15;;;1.50;99.90;;;;;;5040205;28;20041;-71
2022/03/15 00:49:23;;;;;;;54.65;22.88;;;1.70;99.90;;;;;;5057428;28;20079;-70
2022/03/15 00:51:52;;;;;;;61.58;24.67;;;1.70;99.90;;;;;;5059634;28;20098;-71
2022/03/15 00:54:20;;;;;;;62.30;25.02;;;1.60;99.90;;;;;;5070387;28;20080;-70
2022/03/15 00:56:52;;;;;;;63.45;25.02;;;1.60;99.90;;;;;;5030193;28;20128;-70
2022/03/15 00:59:19;;;;;;;61.20;23.15;;;1.60;99.90;;;;;;5046042;28;20049;-70
2022/03/15 01:01:46;;;;;;;56.25;24.25;;;1.50;99.90;;;;;;5061410;28;20040;-70
2022/03/15 01:04:13;;;;;;;59.88;24.48;;;1.60;99.90;;;;;;5029509;28;20048;-70
2022/03/15 01:06:42;;;;;;;64.50;23.80;;;1.60;99.90;;;;;;5046337;28;20599;-69
2022/03/15 01:09:09;;;;;;;55.55;23.52;;;1.70;99.90;;;;;;5047125;28;20048;-71
2022/03/15 01:11:37;;;;;;;72.13;24.13;;;1.50;99.90;;;;;;5062528;28;20079;-70
2022/03/15 01:14:04;;;;;;;58.10;22.92;;;1.50;99.90;;;;;;5066897;28;20051;-70
2022/03/15 01:16:31;;;;;;;58.95;22.67;;;1.40;99.90;;;;;;5084343;28;20498;-69
2022/03/15 01:18:58;;;;;;;55.80;23.80;;;1.30;99.90;;;;;;5083003;28;20076;-69
2022/03/15 01:21:26;;;;;;;59.72;22.23;;;1.30;99.90;;;;;;5045432;28;20102;-69
2022/03/15 01:23:53;;;;;;;59.67;24.55;;;1.50;99.90;;;;;;5047901;28;20135;-69
2022/03/15 01:26:20;;;;;;;66.63;21.90;;;1.50;99.90;;;;;;5048361;28;20052;-70
2022/03/15 01:31:44;;;;;;;61.03;20.98;;;1.60;99.90;;;;;;5012299;28;20136;-75
2022/03/15 01:34:13;;;;;;;60.30;22.00;;;1.70;99.90;;;;;;5009373;28;20046;-75
2022/03/15 01:36:40;;;;;;;52.72;21.95;;;1.60;99.90;;;;;;5012984;28;20135;-73
2022/03/15 01:39:07;;;;;;;63.15;22.90;;;1.50;99.90;;;;;;5030767;28;20061;-73
2022/03/15 01:41:38;;;;;;;57.95;19.85;;;1.50;99.90;;;;;;4999214;28;20149;-73
2022/03/15 01:44:15;;;;;;;55.67;21.30;;;1.50;99.90;;;;;;5017299;28;20367;-73
2022/03/15 01:46:43;;;;;;;52.50;21.00;;;1.40;99.90;;;;;;4981896;28;20115;-73
2022/03/15 01:49:11;;;;;;;53.40;21.58;;;1.40;99.90;;;;;;4995356;28;20063;-73
2022/03/15 01:51:50;;;;;;;57.78;20.55;;;1.40;99.90;;;;;;5000037;28;20061;-73
2022/03/15 01:54:19;;;;;;;53.95;21.83;;;1.30;99.90;;;;;;4998965;28;20099;-73
2022/03/15 01:56:46;;;;;;;49.25;19.77;;;1.40;99.90;;;;;;4997165;28;20048;-74
2022/03/15 01:59:15;;;;;;;59.28;22.20;;;1.40;99.90;;;;;;4981244;28;20049;-73
2022/03/15 02:01:42;;;;;;;66.10;22.08;;;1.50;99.90;;;;;;4994613;28;20148;-74
2022/03/15 02:04:11;;;;;;;59.92;20.98;;;1.50;99.90;;;;;;5015819;28;20057;-74
2022/03/15 02:06:41;;;;;;;55.33;21.20;;;1.40;99.90;;;;;;5014828;28;20766;-74
2022/03/15 02:09:11;;;;;;;55.88;21.05;;;1.40;99.90;;;;;;4995328;28;20049;-71
2022/03/15 02:11:39;;;;;;;64.38;22.98;;;1.40;99.90;;;;;;4995911;28;20072;-72
2022/03/15 02:14:06;;;;;;;58.80;21.58;;;1.40;99.90;;;;;;5016327;28;20069;-73
2022/03/15 02:16:33;;;;;;;49.30;20.52;;;1.30;99.90;;;;;;5015223;28;20457;-73
2022/03/15 02:19:02;;;;;;;53.95;20.75;;;1.40;99.90;;;;;;4995931;28;20413;-72
2022/03/15 02:21:29;;;;;;;51.33;19.50;;;1.30;99.90;;;;;;5014258;28;20045;-72
2022/03/15 02:23:56;;;;;;;47.65;18.95;;;1.30;99.90;;;;;;4997948;28;20505;-73
2022/03/15 02:26:23;;;;;;;51.88;21.75;;;1.30;99.90;;;;;;4997289;28;20635;-72
2022/03/15 02:28:50;;;;;;;54.75;22.40;;;1.30;99.90;;;;;;4992817;28;20123;-73
2022/03/15 02:31:19;;;;;;;52.17;21.20;;;1.30;99.90;;;;;;5013107;28;20227;-73
2022/03/15 02:33:49;;;;;;;56.58;23.00;;;1.50;99.90;;;;;;5015129;28;20140;-73
2022/03/15 02:36:16;;;;;;;64.95;23.35;;;1.60;99.90;;;;;;4996507;28;20045;-73
2022/03/15 02:38:46;;;;;;;54.95;22.35;;;1.50;99.90;;;;;;4996816;28;20053;-72
2022/03/15 02:41:14;;;;;;;58.47;22.42;;;1.50;99.90;;;;;;4992375;28;20522;-73
2022/03/15 02:43:42;;;;;;;62.78;24.35;;;1.50;99.90;;;;;;5013395;28;20860;-73
2022/03/15 02:46:09;;;;;;;56.85;21.88;;;1.50;99.90;;;;;;4996895;28;20046;-73
2022/03/15 02:48:36;;;;;;;58.75;23.90;;;1.50;99.90;;;;;;5023242;28;20562;-73
2022/03/15 02:51:08;;;;;;;72.45;24.90;;;1.60;99.90;;;;;;5005832;28;20130;-73
2022/03/15 02:53:38;;;;;;;73.13;26.85;;;1.60;99.90;;;;;;5013993;28;20045;-72
2022/03/15 02:56:12;;;;;;;82.47;27.15;;;1.80;99.90;;;;;;4995783;28;20050;-72
2022/03/15 02:58:40;;;;;;;76.55;25.92;;;1.90;99.90;;;;;;5014984;28;20095;-73
2022/03/15 03:01:08;;;;;;;72.97;24.67;;;2.00;99.90;;;;;;4993690;28;20327;-73
2022/03/15 03:03:37;;;;;;;71.05;24.63;;;1.90;99.90;;;;;;4996584;28;20054;-73
2022/03/15 03:06:04;;;;;;;67.30;22.98;;;1.80;99.90;;;;;;5014474;28;20096;-73
2022/03/15 03:08:32;;;;;;;59.80;23.58;;;1.80;99.90;;;;;;5013222;28;20492;-73
2022/03/15 03:11:01;;;;;;;47.75;20.48;;;1.80;99.90;;;;;;5011860;28;20132;-73
2022/03/15 03:13:30;;;;;;;49.33;22.17;;;1.70;99.90;;;;;;4995953;28;20056;-73
2022/03/15 03:16:00;;;;;;;52.60;22.20;;;1.70;99.90;;;;;;4993466;28;20476;-73
2022/03/15 03:18:32;;;;;;;53.95;21.63;;;1.70;99.90;;;;;;5013992;28;20084;-73
2022/03/15 03:21:01;;;;;;;61.25;22.73;;;1.70;99.90;;;;;;4994470;28;20080;-73
2022/03/15 03:23:29;;;;;;;56.58;22.98;;;1.80;99.90;;;;;;5013695;28;20045;-72
2022/03/15 03:25:56;;;;;;;62.33;22.70;;;1.90;99.90;;;;;;4995875;28;20055;-73
2022/03/15 03:28:23;;;;;;;70.35;23.17;;;2.00;99.90;;;;;;5012858;28;20056;-73
2022/03/15 03:30:50;;;;;;;64.22;23.52;;;1.80;99.90;;;;;;4990342;28;20107;-73
2022/03/15 03:33:22;;;;;;;57.90;23.48;;;1.70;99.90;;;;;;5012740;28;20522;-72
2022/03/15 03:35:49;;;;;;;52.42;22.33;;;1.70;99.90;;;;;;4995154;28;20037;-74
2022/03/15 03:38:17;;;;;;;64.53;22.92;;;1.70;99.90;;;;;;4996106;28;20176;-73
2022/03/15 03:40:44;;;;;;;62.90;24.75;;;1.70;99.90;;;;;;5010893;28;20045;-72
2022/03/15 03:43:11;;;;;;;51.67;21.77;;;1.70;99.90;;;;;;4995158;28;20061;-72
2022/03/15 03:45:39;;;;;;;61.33;23.42;;;1.70;99.90;;;;;;5012398;28;20505;-73
2022/03/15 03:48:06;;;;;;;68.55;24.17;;;1.90;99.90;;;;;;5014990;28;20064;-72
2022/03/15 03:50:35;;;;;;;68.00;24.13;;;1.70;99.90;;;;;;5031138;28;20044;-72
2022/03/15 03:53:04;;;;;;;82.60;26.00;;;1.70;99.90;;;;;;5021675;28;20706;-73
2022/03/15 03:55:31;;;;;;;72.57;24.63;;;1.60;99.90;;;;;;5011584;28;20045;-73
2022/03/15 03:57:59;;;;;;;88.68;26.60;;;1.70;99.90;;;;;;5012223;28;20045;-72
2022/03/15 04:00:27;;;;;;;71.30;24.17;;;1.80;99.90;;;;;;5011435;28;20433;-73
2022/03/15 04:02:57;;;;;;;75.22;27.33;;;1.70;99.90;;;;;;5011759;28;20127;-73
2022/03/15 04:05:24;;;;;;;73.97;25.33;;;1.80;99.90;;;;;;4993586;28;20049;-73
2022/03/15 04:07:51;;;;;;;78.25;25.70;;;1.90;99.90;;;;;;4994948;28;20123;-73
2022/03/15 04:10:21;;;;;;;73.20;25.42;;;2.00;99.90;;;;;;5011592;28;20383;-72
2022/03/15 04:12:47;;;;;;;80.78;26.52;;;1.90;99.90;;;;;;5006384;28;20133;-72
2022/03/15 04:15:14;;;;;;;95.95;27.30;;;1.90;99.90;;;;;;4974041;28;20081;-73
2022/03/15 04:17:41;;;;;;;82.25;25.88;;;2.00;99.90;;;;;;4975529;28;20101;-72
2022/03/15 04:20:08;;;;;;;92.10;27.15;;;2.00;99.90;;;;;;4974473;28;20128;-73
2022/03/15 04:22:35;;;;;;;81.85;25.20;;;2.10;99.90;;;;;;4989764;28;20049;-73
2022/03/15 04:25:02;;;;;;;74.10;25.58;;;2.00;99.90;;;;;;5005234;28;20065;-72
2022/03/15 04:27:29;;;;;;;82.32;26.45;;;2.00;99.90;;;;;;5012227;28;20046;-72
2022/03/15 04:29:56;;;;;;;86.43;26.75;;;2.10;99.90;;;;;;5007839;28;20060;-72
2022/03/15 04:32:23;;;;;;;109.20;30.15;;;2.10;99.90;;;;;;4993841;28;20037;-73
2022/03/15 04:34:49;;;;;;;95.25;28.63;;;2.00;99.90;;;;;;4992204;28;20084;-72
2022/03/15 04:37:21;;;;;;;88.57;28.05;;;2.00;99.90;;;;;;5012535;28;20135;-73
2022/03/15 04:39:47;;;;;;;92.05;30.88;;;1.90;99.90;;;;;;4993587;28;20534;-72
2022/03/15 04:42:15;;;;;;;102.05;30.40;;;2.10;99.90;;;;;;5006218;28;20042;-73
2022/03/15 04:44:43;;;;;;;83.82;26.60;;;2.10;99.90;;;;;;4999998;28;20141;-73
2022/03/15 04:47:10;;;;;;;75.32;26.08;;;2.00;99.90;;;;;;5012007;28;20049;-71
2022/03/15 04:49:37;;;;;;;76.07;27.05;;;2.00;99.90;;;;;;5028329;28;20064;-71
2022/03/15 04:52:04;;;;;;;81.85;25.10;;;1.90;99.90;;;;;;5011199;28;20061;-72
2022/03/15 04:54:31;;;;;;;75.28;25.50;;;1.90;99.90;;;;;;5013500;28;20072;-72
2022/03/15 04:56:57;;;;;;;73.80;24.38;;;1.90;99.90;;;;;;5012024;28;20034;-72
2022/03/15 04:59:25;;;;;;;69.50;26.33;;;2.00;99.90;;;;;;4991477;28;20121;-72
2022/03/15 05:01:52;;;;;;;78.75;27.35;;;2.10;99.90;;;;;;5009797;28;20046;-72
2022/03/15 05:04:19;;;;;;;80.80;27.55;;;2.00;99.90;;;;;;5013323;28;20122;-72
2022/03/15 05:06:46;;;;;;;78.68;27.52;;;2.10;99.90;;;;;;5011774;28;20049;-72
2022/03/15 05:09:13;;;;;;;89.07;29.02;;;2.10;99.90;;;;;;4977534;28;20533;-72
2022/03/15 05:11:44;;;;;;;100.38;31.15;;;2.10;99.90;;;;;;4993144;28;20562;-72
2022/03/15 05:14:14;;;;;;;98.55;29.40;;;2.00;99.90;;;;;;5007275;28;20112;-72
2022/03/15 05:16:41;;;;;;;101.90;31.17;;;2.30;99.90;;;;;;4988853;28;20123;-72
2022/03/15 05:19:08;;;;;;;83.38;29.42;;;2.30;99.90;;;;;;4995295;28;20053;-72
2022/03/15 05:21:35;;;;;;;90.78;29.67;;;2.40;99.90;;;;;;5012107;28;20041;-72
2022/03/15 05:24:02;;;;;;;94.57;29.25;;;2.40;99.90;;;;;;5013131;28;20143;-72
2022/03/15 05:26:29;;;;;;;95.60;28.25;;;2.40;99.90;;;;;;4993353;28;20274;-72
2022/03/15 05:28:56;;;;;;;83.65;27.83;;;2.40;99.90;;;;;;4991634;28;20506;-73
2022/03/15 05:31:26;;;;;;;107.63;30.42;;;2.30;99.90;;;;;;5008539;28;20068;-72
2022/03/15 05:33:56;;;;;;;89.30;28.98;;;2.40;99.90;;;;;;5011453;28;20057;-73
2022/03/15 05:36:23;;;;;;;86.18;29.70;;;2.50;99.90;;;;;;4993505;28;20110;-72
2022/03/15 05:38:50;;;;;;;107.28;32.72;;;2.40;99.90;;;;;;4995420;28;20076;-72
2022/03/15 05:41:17;;;;;;;108.88;34.08;;;2.50;99.90;;;;;;4995662;28;20053;-72
2022/03/15 05:43:54;;;;;;;107.13;31.15;;;2.50;99.90;;;;;;5016616;28;20745;-72
2022/03/15 05:46:20;;;;;;;109.30;30.40;;;2.50;99.90;;;;;;4994834;28;20508;-74
2022/03/15 05:48:47;;;;;;;115.10;31.08;;;2.60;99.90;;;;;;5015916;28;20049;-71
2022/03/15 05:51:14;;;;;;;109.47;29.80;;;2.50;99.90;;;;;;4981311;28;20038;-71
2022/03/15 05:53:41;;;;;;;102.82;29.25;;;2.50;99.90;;;;;;4981204;28;20060;-72
2022/03/15 05:56:11;;;;;;;94.95;28.70;;;2.50;99.90;;;;;;5015920;28;20478;-72
2022/03/15 05:58:42;;;;;;;106.40;30.70;;;2.50;99.90;;;;;;5010476;28;20046;-72
2022/03/15 06:01:09;;;;;;;108.03;30.85;;;2.50;99.90;;;;;;5011708;28;20918;-72
2022/03/15 06:03:36;;;;;;;110.07;31.95;;;2.50;99.90;;;;;;5014552;28;20730;-72
2022/03/15 06:06:03;;;;;;;104.68;30.73;;;2.50;99.90;;;;;;4996792;28;20061;-73
2022/03/15 06:08:30;;;;;;;99.05;30.70;;;2.50;99.90;;;;;;4995260;28;20053;-72
2022/03/15 06:10:57;;;;;;;104.07;29.52;;;2.50;99.90;;;;;;5013043;28;20068;-72
2022/03/15 06:13:24;;;;;;;108.25;30.17;;;2.50;99.90;;;;;;5014780;28;20056;-73
2022/03/15 06:15:51;;;;;;;86.97;28.20;;;2.60;99.90;;;;;;4996556;28;20053;-72
2022/03/15 06:18:18;;;;;;;94.63;30.88;;;2.60;99.90;;;;;;5013512;28;20096;-73
2022/03/15 06:20:46;;;;;;;91.88;29.50;;;2.60;99.90;;;;;;4993150;28;20049;-72
2022/03/15 06:23:12;;;;;;;91.30;28.00;;;2.60;99.90;;;;;;4996063;28;20376;-73
2022/03/15 06:25:39;;;;;;;106.43;30.02;;;2.60;99.90;;;;;;5013869;28;20045;-72
2022/03/15 06:28:06;;;;;;;102.00;28.92;;;2.60;99.90;;;;;;4995525;28;20053;-72
2022/03/15 06:30:36;;;;;;;101.35;30.20;;;2.70;99.90;;;;;;5016853;28;20247;-72
2022/03/15 06:33:03;;;;;;;116.68;32.40;;;2.80;99.90;;;;;;4996195;28;20057;-72
2022/03/15 06:35:30;;;;;;;116.00;33.72;;;3.00;99.90;;;;;;5012852;28;20123;-72
2022/03/15 06:37:56;;;;;;;95.00;35.15;;;3.10;99.90;;;;;;4996156;28;20037;-72
2022/03/15 06:40:26;;;;;;;114.75;32.17;;;3.00;99.90;;;;;;5012846;28;20245;-72
2022/03/15 06:42:54;;;;;;;113.18;35.53;;;3.00;99.90;;;;;;4995923;28;20057;-72
2022/03/15 06:45:22;;;;;;;111.50;32.97;;;2.90;99.90;;;;;;4994443;28;20048;-72
2022/03/15 06:47:49;;;;;;;105.43;33.88;;;2.90;99.90;;;;;;4995583;28;20274;-72
2022/03/15 06:50:18;;;;;;;109.03;32.30;;;3.00;99.90;;;;;;5012360;28;20053;-73
2022/03/15 06:52:46;;;;;;;100.82;31.67;;;3.00;99.90;;;;;;5004786;28;20065;-73
2022/03/15 06:55:13;;;;;;;96.60;28.95;;;3.20;99.90;;;;;;5011744;28;20057;-73
2022/03/15 06:57:41;;;;;;;103.10;33.20;;;3.20;99.90;;;;;;4992740;28;20054;-72
2022/03/15 07:00:13;;;;;;;101.75;32.67;;;3.30;99.90;;;;;;5005009;28;20171;-72
2022/03/15 07:02:40;;;;;;;88.93;32.88;;;3.40;99.90;;;;;;4997319;28;20113;-73
2022/03/15 07:05:08;;;;;;;104.35;32.53;;;3.40;99.90;;;;;;4993946;28;20045;-72
2022/03/15 07:07:36;;;;;;;90.70;31.75;;;3.40;99.90;;;;;;4993668;28;20050;-73
2022/03/15 07:10:06;;;;;;;99.68;33.60;;;3.50;99.90;;;;;;4992018;28;20288;-73
2022/03/15 07:12:34;;;;;;;86.72;30.40;;;3.70;99.90;;;;;;4976270;28;20340;-73
2022/03/15 07:15:02;;;;;;;77.30;29.85;;;3.60;99.90;;;;;;4994627;28;20053;-73
2022/03/15 07:17:30;;;;;;;73.88;29.13;;;3.70;99.90;;;;;;5004400;28;20267;-73
2022/03/15 07:19:57;;;;;;;81.25;29.77;;;3.80;99.90;;;;;;4992749;28;20238;-73
2022/03/15 07:22:25;;;;;;;69.35;30.50;;;3.90;99.90;;;;;;4992234;28;20060;-73
2022/03/15 07:24:52;;;;;;;74.32;30.55;;;3.90;99.90;;;;;;4992827;28;20317;-72
2022/03/15 07:27:19;;;;;;;76.10;32.72;;;4.00;99.90;;;;;;5008772;28;20053;-73
2022/03/15 07:29:46;;;;;;;80.95;32.03;;;4.10;99.90;;;;;;5019640;22;20045;-71
2022/03/15 07:32:13;;;;;;;68.05;30.15;;;4.10;99.90;;;;;;5053829;28;20094;-72
2022/03/15 07:34:40;;;;;;;71.88;29.48;;;4.30;99.90;;;;;;5040645;28;20036;-70
2022/03/15 07:37:07;;;;;;;77.88;31.38;;;4.30;99.90;;;;;;5059684;28;20534;-71
2022/03/15 07:39:34;;;;;;;63.25;29.02;;;4.30;99.90;;;;;;5060093;28;20114;-71
2022/03/15 07:42:01;;;;;;;64.15;30.38;;;4.40;99.90;;;;;;5041382;28;20071;-70
2022/03/15 07:44:33;;;;;;;62.70;29.05;;;4.50;99.90;;;;;;5040757;28;20044;-72
2022/03/15 07:46:59;;;;;;;69.47;31.20;;;4.70;99.90;;;;;;5058484;28;20211;-71
2022/03/15 07:49:27;;;;;;;57.90;30.30;;;4.80;99.90;;;;;;5075815;28;20109;-70
2022/03/15 07:51:56;;;;;;;55.28;27.60;;;4.90;99.90;;;;;;5079574;28;20610;-71
2022/03/15 07:54:23;;;;;;;49.33;27.02;;;5.00;99.90;;;;;;5043811;28;20136;-72
2022/03/15 07:56:50;;;;;;;46.58;27.92;;;5.00;99.90;;;;;;5039911;28;20114;-70
2022/03/15 07:59:21;;;;;;;47.63;27.13;;;5.10;99.90;;;;;;5041030;28;20075;-71
2022/03/15 08:01:48;;;;;;;44.33;25.50;;;5.30;99.90;;;;;;5040619;28;20028;-72
2022/03/15 08:04:15;;;;;;;39.05;26.00;;;5.40;99.90;;;;;;5041693;28;20113;-72
2022/03/15 08:06:42;;;;;;;40.05;26.48;;;5.50;99.90;;;;;;5058507;28;20135;-70
2022/03/15 08:09:09;;;;;;;47.53;27.55;;;5.40;99.90;;;;;;5040983;28;20052;-72
2022/03/15 08:11:36;;;;;;;49.45;28.73;;;5.50;99.90;;;;;;5041041;28;20119;-72
2022/03/15 08:14:04;;;;;;;38.20;26.23;;;5.50;99.90;;;;;;5059483;28;20685;-74
2022/03/15 08:16:30;;;;;;;42.05;29.20;;;5.70;99.90;;;;;;5060078;28;20630;-73
2022/03/15 08:18:57;;;;;;;37.65;25.23;;;5.90;99.90;;;;;;5060549;28;20041;-74
2022/03/15 08:21:26;;;;;;;33.10;25.50;;;6.10;99.90;;;;;;5058788;28;20045;-74
2022/03/15 08:23:53;;;;;;;37.13;26.98;;;6.30;99.90;;;;;;5060228;28;20106;-74
2022/03/15 08:26:20;;;;;;;40.45;25.95;;;6.40;99.90;;;;;;5042320;28;20106;-73
2022/03/15 08:28:48;;;;;;;38.20;25.95;;;6.50;99.90;;;;;;5058700;28;20071;-73
2022/03/15 08:31:16;;;;;;;27.75;20.60;;;6.50;99.90;;;;;;5059616;28;20604;-73
2022/03/15 08:33:44;;;;;;;21.80;16.92;;;6.60;99.90;;;;;;5025217;28;20037;-74
2022/03/15 08:36:13;;;;;;;24.45;17.02;;;6.60;99.90;;;;;;5042125;28;20049;-73
2022/03/15 08:38:40;;;;;;;17.80;15.15;;;6.80;99.90;;;;;;5061461;28;20053;-74
2022/03/15 08:41:08;;;;;;;23.45;16.90;;;6.80;99.90;;;;;;5059574;28;20129;-72
2022/03/15 08:43:37;;;;;;;24.40;18.15;;;6.80;99.90;;;;;;5042892;28;20064;-73
2022/03/15 08:46:04;;;;;;;18.88;16.75;;;6.90;99.90;;;;;;5025683;28;20456;-74
2022/03/15 08:48:32;;;;;;;20.67;18.45;;;7.00;99.90;;;;;;5066440;28;20050;-74
2022/03/15 08:51:00;;;;;;;21.20;18.80;;;7.20;99.90;;;;;;5060124;28;20174;-74
2022/03/15 08:53:28;;;;;;;20.88;18.67;;;7.30;99.90;;;;;;5042078;28;20125;-74
2022/03/15 08:55:55;;;;;;;20.15;17.60;;;7.50;99.90;;;;;;5043651;28;20687;-74
2022/03/15 08:58:22;;;;;;;23.92;19.23;;;7.60;99.90;;;;;;5041396;28;20513;-74
2022/03/15 09:00:51;;;;;;;24.70;20.15;;;7.60;99.90;;;;;;5023166;28;20102;-73
2022/03/15 09:03:17;;;;;;;22.38;20.17;;;7.70;99.90;;;;;;5045226;28;20538;-74
2022/03/15 09:05:44;;;;;;;22.95;19.00;;;7.70;99.90;;;;;;5059462;28;20037;-74
2022/03/15 09:08:16;;;;;;;21.63;19.35;;;7.70;99.90;;;;;;5040454;28;20049;-73
2022/03/15 09:10:46;;;;;;;21.20;19.30;;;7.60;99.90;;;;;;5024876;28;20253;-74
2022/03/15 09:13:13;;;;;;;22.15;20.05;;;7.60;99.90;;;;;;5042202;28;20044;-74
2022/03/15 09:15:40;;;;;;;22.52;20.42;;;7.60;99.90;;;;;;5061579;28;20123;-73
2022/03/15 09:18:07;;;;;;;21.95;20.13;;;7.60;99.90;;;;;;5073639;28;20481;-73
2022/03/15 09:20:38;;;;;;;25.55;23.15;;;7.60;99.90;;;;;;5062783;28;20064;-74
2022/03/15 09:23:06;;;;;;;24.30;21.35;;;7.70;99.90;;;;;;5046022;28;20053;-74
2022/03/15 09:25:36;;;;;;;23.55;21.42;;;7.80;99.90;;;;;;5028959;28;20036;-74
2022/03/15 09:28:05;;;;;;;25.35;23.08;;;7.90;99.90;;;;;;5064088;28;20760;-74
2022/03/15 09:30:34;;;;;;;24.83;22.30;;;8.00;99.90;;;;;;5061189;28;20052;-74
2022/03/15 09:33:01;;;;;;;23.65;21.80;;;8.20;99.90;;;;;;5022835;28;20048;-74
2022/03/15 09:35:27;;;;;;;24.92;23.10;;;8.20;99.90;;;;;;5044433;28;20048;-74
2022/03/15 09:37:55;;;;;;;23.90;21.98;;;8.10;99.90;;;;;;5045318;28;20550;-74
2022/03/15 09:40:25;;;;;;;24.00;22.05;;;8.10;99.90;;;;;;5043746;28;20123;-75
2022/03/15 09:42:57;;;;;;;25.50;23.13;;;8.10;99.90;;;;;;5047458;28;20511;-74
2022/03/15 09:45:29;;;;;;;24.42;22.15;;;8.10;99.90;;;;;;5062620;28;20044;-73
2022/03/15 09:47:59;;;;;;;24.90;22.52;;;8.20;99.90;;;;;;5042201;28;20048;-74
2022/03/15 09:50:26;;;;;;;22.73;20.88;;;8.30;99.90;;;;;;5061969;28;20075;-74
2022/03/15 09:52:58;;;;;;;24.25;22.25;;;8.50;99.90;;;;;;5063067;28;20049;-74
2022/03/15 09:55:26;;;;;;;23.42;21.35;;;8.50;99.90;;;;;;5043866;28;20056;-75
2022/03/15 09:57:54;;;;;;;22.92;20.73;;;8.60;99.90;;;;;;5028596;28;20125;-73
2022/03/15 10:00:24;;;;;;;22.35;20.60;;;8.60;99.90;;;;;;5044788;28;20037;-75
2022/03/15 10:02:51;;;;;;;23.58;21.58;;;8.60;99.90;;;;;;5044960;28;20314;-74
2022/03/15 10:05:19;;;;;;;22.63;21.02;;;8.50;99.90;;;;;;5045298;28;20036;-73
2022/03/15 10:07:46;;;;;;;23.55;21.73;;;8.50;99.90;;;;;;5063150;28;20045;-74
2022/03/15 10:10:15;;;;;;;22.60;21.20;;;8.60;99.90;;;;;;5062235;28;20052;-74
2022/03/15 10:12:42;;;;;;;23.15;21.30;;;8.70;99.90;;;;;;5044785;28;20045;-73
2022/03/15 10:15:18;;;;;;;24.70;22.98;;;8.80;99.90;;;;;;5043390;28;20044;-74
2022/03/15 10:17:48;;;;;;;23.13;21.40;;;9.00;99.90;;;;;;5061518;28;20097;-75
2022/03/15 10:20:18;;;;;;;22.52;20.92;;;9.00;99.90;;;;;;5062553;28;20667;-74
2022/03/15 10:23:11;;;;;;;22.75;20.90;;;9.00;99.90;;;;;;5062635;28;20052;-74
2022/03/15 10:25:45;;;;;;;23.08;21.42;;;9.00;99.90;;;;;;5060522;28;20060;-74
2022/03/15 10:28:13;;;;;;;23.52;21.83;;;9.00;99.90;;;;;;5061111;28;20044;-75
2022/03/15 10:30:44;;;;;;;23.95;21.90;;;8.90;99.90;;;;;;5041386;28;20040;-73
2022/03/15 10:33:12;;;;;;;24.05;22.27;;;9.00;99.90;;;;;;5062427;28;20048;-74
2022/03/15 10:35:42;;;;;;;23.73;21.55;;;9.00;99.90;;;;;;5062091;28;20472;-73
2022/03/15 10:38:09;;;;;;;25.52;23.33;;;9.00;99.90;;;;;;5063490;28;20045;-74
2022/03/15 10:40:40;;;;;;;23.83;22.10;;;9.00;99.90;;;;;;5062121;28;20120;-74
2022/03/15 10:43:20;;;;;;;24.80;22.45;;;8.80;99.90;;;;;;5062470;28;20719;-74
2022/03/15 10:45:57;;;;;;;23.88;22.13;;;8.70;99.90;;;;;;5049399;28;20507;-74
2022/03/15 10:48:30;;;;;;;23.90;21.65;;;8.80;99.90;;;;;;5048358;28;20041;-75
2022/03/15 10:51:00;;;;;;;24.77;22.30;;;8.70;99.90;;;;;;5049618;28;20136;-73
2022/03/15 10:53:42;;;;;;;24.83;22.88;;;8.70;99.90;;;;;;5047545;28;20083;-73
2022/03/15 10:56:11;;;;;;;23.60;21.70;;;8.80;99.90;;;;;;5061135;28;20037;-74
2022/03/15 10:58:53;;;;;;;26.17;23.45;;;8.90;99.90;;;;;;5061823;28;20048;-74
2022/03/15 11:01:22;;;;;;;28.20;25.67;;;9.00;99.90;;;;;;5043475;28;20048;-74
2022/03/15 11:04:00;;;;;;;27.70;25.08;;;9.10;99.90;;;;;;5041165;28;20041;-74
2022/03/15 11:06:38;;;;;;;24.73;22.70;;;9.10;99.90;;;;;;5024518;28;20049;-73
2022/03/15 11:09:19;;;;;;;25.33;23.08;;;9.30;99.90;;;;;;5043798;28;20067;-75
2022/03/15 11:11:52;;;;;;;24.63;22.63;;;9.30;99.90;;;;;;5043338;28;20053;-74
2022/03/15 11:15:01;;;;;;;23.80;22.00;;;9.30;99.90;;;;;;5062881;28;20052;-75
2022/03/15 11:17:23;;;;;;;24.98;22.80;;;9.20;99.90;;;;;;5043940;28;20098;-74
2022/03/15 11:19:52;;;;;;;24.17;22.35;;;9.10;99.90;;;;;;5042403;28;20139;-73
2022/03/15 11:22:22;;;;;;;24.65;22.48;;;9.10;99.90;;;;;;5046871;28;20529;-74
2022/03/15 11:25:11;;;;;;;24.80;22.52;;;9.10;99.90;;;;;;5062034;28;20500;-74
2022/03/15 11:27:41;;;;;;;24.15;22.35;;;9.10;99.90;;;;;;5044160;28;20538;-74
2022/03/15 11:30:11;;;;;;;25.77;23.13;;;9.20;99.90;;;;;;5040971;28;20048;-75
2022/03/15 11:32:38;;;;;;;24.70;22.52;;;9.20;99.90;;;;;;5058278;28;20059;-75
2022/03/15 11:35:08;;;;;;;24.40;22.50;;;9.20;99.90;;;;;;5040300;28;20048;-74
2022/03/15 11:37:36;;;;;;;25.25;23.05;;;9.00;99.90;;;;;;5061085;28;20052;-74
2022/03/15 11:40:09;;;;;;;24.40;22.50;;;9.00;99.90;;;;;;5059087;28;20114;-73
2022/03/15 11:42:43;;;;;;;23.25;21.65;;;9.10;99.90;;;;;;5043824;28;20049;-74
2022/03/15 11:45:32;;;;;;;24.57;22.53;;;9.20;99.90;;;;;;5060596;28;20049;-75
2022/03/15 11:48:29;;;;;;;23.60;21.80;;;9.20;99.90;;;;;;5047809;28;20188;-75
2022/03/15 11:51:17;;;;;;;23.98;21.90;;;9.30;99.90;;;;;;5044510;28;20074;-75
2022/03/15 11:53:49;;;;;;;24.23;21.92;;;9.30;99.90;;;;;;5043339;28;20048;-75
2022/03/15 11:56:35;;;;;;;24.48;21.60;;;9.20;99.90;;;;;;5060708;28;20082;-74
2022/03/15 11:59:02;;;;;;;24.08;21.73;;;9.20;99.90;;;;;;5061257;28;20137;-74
2022/03/15 12:01:30;;;;;;;24.05;22.02;;;9.30;99.90;;;;;;5055700;28;20041;-74
2022/03/15 12:03:59;;;;;;;23.63;21.52;;;9.30;99.90;;;;;;5054565;28;20053;-74
2022/03/15 12:06:30;;;;;;;24.98;22.55;;;9.40;99.90;;;;;;5043422;28;20067;-75
2022/03/15 12:09:00;;;;;;;23.40;21.60;;;9.60;99.90;;;;;;5060999;28;20079;-74
2022/03/15 12:11:29;;;;;;;24.00;22.25;;;9.70;99.90;;;;;;5041278;28;20041;-75
2022/03/15 12:14:09;;;;;;;23.95;22.25;;;9.70;99.90;;;;;;5059533;28;20052;-75
2022/03/15 12:16:45;;;;;;;24.83;23.05;;;9.70;99.90;;;;;;5042186;28;20119;-75
2022/03/15 12:19:30;;;;;;;23.50;22.00;;;9.80;99.90;;;;;;5059317;28;20049;-75
2022/03/15 12:21:59;;;;;;;25.48;23.50;;;9.90;99.90;;;;;;5042287;28;20059;-75
2022/03/15 12:24:41;;;;;;;25.85;23.45;;;9.90;99.90;;;;;;5043049;28;20052;-73
2022/03/15 12:27:20;;;;;;;25.60;23.75;;;9.90;99.90;;;;;;5060891;28;20528;-75
2022/03/15 12:30:00;;;;;;;27.63;25.35;;;9.90;99.90;;;;;;5058465;28;20197;-75
2022/03/15 12:32:27;;;;;;;25.23;23.52;;;9.90;99.90;;;;;;5042263;28;20553;-75
2022/03/15 12:34:56;;;;;;;25.35;23.63;;;9.90;99.90;;;;;;5042693;28;20075;-74
2022/03/15 12:37:32;;;;;;;26.05;23.92;;;10.00;99.90;;;;;;5041919;28;20624;-75
2022/03/15 12:40:02;;;;;;;26.00;24.17;;;10.10;99.90;;;;;;5042251;28;20105;-74
2022/03/15 12:42:29;;;;;;;26.65;24.60;;;10.20;99.90;;;;;;5043442;28;20122;-75
2022/03/15 12:45:03;;;;;;;27.48;25.35;;;10.00;99.90;;;;;;5061039;28;20049;-75
2022/03/15 12:47:33;;;;;;;26.48;24.30;;;9.90;99.90;;;;;;5024912;28;20174;-75